createdAt,value
2024-02-05T00:01:59.340Z,72.81
2024-02-05T00:04:29.391Z,72.87
2024-02-05T00:06:58.637Z,72.90
2024-02-05T00:09:27.951Z,72.93
2024-02-05T00:11:56.964Z,72.89
2024-02-05T00:14:25.975Z,72.94
2024-02-05T00:16:55.558Z,73.11
2024-02-05T00:19:24.681Z,73.20
2024-02-05T00:21:53.901Z,73.27
2024-02-05T00:24:23.023Z,73.18
2024-02-05T00:26:52.028Z,73.28
2024-02-05T00:29:21.516Z,73.32
2024-02-05T00:31:50.833Z,73.33
2024-02-05T00:34:19.768Z,73.49
2024-02-05T00:36:48.954Z,73.66
2024-02-05T00:39:17.924Z,73.77
2024-02-05T00:41:46.836Z,73.78
2024-02-05T00:44:16.102Z,73.94
2024-02-05T00:46:45.250Z,73.84
2024-02-05T00:49:14.300Z,74.00
2024-02-05T00:51:43.327Z,74.03
2024-02-05T00:54:12.217Z,74.18
2024-02-05T00:56:41.152Z,74.17
2024-02-05T00:59:10.313Z,74.15
2024-02-05T01:01:39.267Z,74.16
2024-02-05T01:04:08.313Z,74.30
2024-02-05T01:06:37.684Z,74.50
2024-02-05T01:09:11.367Z,74.43
2024-02-05T01:11:40.467Z,74.51
2024-02-05T01:14:09.418Z,74.34
2024-02-05T01:16:39.273Z,74.45
2024-02-05T01:19:08.226Z,74.35
2024-02-05T01:21:37.321Z,74.33
2024-02-05T01:24:06.901Z,74.31
2024-02-05T01:26:35.724Z,74.10
2024-02-05T01:29:08.264Z,74.27
2024-02-05T01:31:37.832Z,74.47
2024-02-05T01:34:06.809Z,74.30
2024-02-05T01:36:35.776Z,74.55
2024-02-05T01:39:06.189Z,74.34
2024-02-05T01:41:35.246Z,74.37
2024-02-05T01:44:04.325Z,74.42
2024-02-05T01:46:37.317Z,74.44
2024-02-05T01:49:09.346Z,74.60
2024-02-05T01:51:44.323Z,74.64
2024-02-05T01:54:16.614Z,74.77
2024-02-05T01:56:46.664Z,74.69
2024-02-05T01:59:16.181Z,74.77
2024-02-05T02:01:45.571Z,74.73
2024-02-05T02:04:15.694Z,74.74
2024-02-05T02:06:45.106Z,74.67
2024-02-05T02:09:15.521Z,74.67
2024-02-05T02:11:44.692Z,74.75
2024-02-05T02:14:14.039Z,74.83
2024-02-05T02:16:42.887Z,74.87
2024-02-05T02:19:31.557Z,74.71
2024-02-05T02:22:15.747Z,74.61
2024-02-05T02:24:45.426Z,74.50
2024-02-05T02:27:14.441Z,74.49
2024-02-05T02:29:44.788Z,74.53
2024-02-05T02:32:35.523Z,74.87
2024-02-05T02:35:13.727Z,74.80
2024-02-05T02:37:50.672Z,74.90
2024-02-05T02:40:23.267Z,74.84
2024-02-05T02:43:00.429Z,74.68
2024-02-05T02:45:29.984Z,74.61
2024-02-05T02:47:59.175Z,74.82
2024-02-05T02:50:28.618Z,75.00
2024-02-05T02:52:57.582Z,75.07
2024-02-05T02:55:26.521Z,75.04
2024-02-05T02:57:55.618Z,75.15
2024-02-05T03:00:24.640Z,75.27
2024-02-05T03:02:53.623Z,75.39
2024-02-05T03:05:22.962Z,75.31
2024-02-05T03:07:51.827Z,75.48
2024-02-05T03:10:21.071Z,75.58
2024-02-05T03:12:50.478Z,75.58
2024-02-05T03:15:21.210Z,75.68
2024-02-05T03:17:50.167Z,75.59
2024-02-05T03:20:40.040Z,75.85
2024-02-05T03:23:12.138Z,75.85
2024-02-05T03:25:42.888Z,75.77
2024-02-05T03:28:12.204Z,75.89
2024-02-05T03:30:42.871Z,75.90
2024-02-05T03:33:12.020Z,76.01
2024-02-05T03:35:41.073Z,76.10
2024-02-05T03:38:12.016Z,76.02
2024-02-05T03:40:40.927Z,75.91
2024-02-05T03:43:09.825Z,75.94
2024-02-05T03:45:38.695Z,76.01
2024-02-05T03:48:09.179Z,76.01
2024-02-05T03:50:38.087Z,76.24
2024-02-05T03:53:07.000Z,76.28
2024-02-05T03:55:35.850Z,76.36
2024-02-05T03:58:05.668Z,76.34
2024-02-05T04:00:34.804Z,76.34
2024-02-05T04:03:04.402Z,76.47
2024-02-05T04:05:33.537Z,76.33
2024-02-05T04:08:02.562Z,76.32
2024-02-05T04:10:31.581Z,76.43
2024-02-05T04:13:00.828Z,76.31
2024-02-05T04:15:29.741Z,76.55
2024-02-05T04:18:00.390Z,76.65
2024-02-05T04:20:29.402Z,76.61
2024-02-05T04:22:58.345Z,76.65
2024-02-05T04:25:27.384Z,76.73
2024-02-05T04:27:56.547Z,76.71
2024-02-05T04:30:30.367Z,76.95
2024-02-05T04:33:00.445Z,76.90
2024-02-05T04:35:29.380Z,76.94
2024-02-05T04:37:58.400Z,77.04
2024-02-05T04:40:27.566Z,77.20
2024-02-05T04:42:56.680Z,77.21
2024-02-05T04:45:25.617Z,77.20
2024-02-05T04:47:55.112Z,77.32
2024-02-05T04:50:24.038Z,77.36
2024-02-05T04:52:52.883Z,77.54
2024-02-05T04:55:21.965Z,77.66
2024-02-05T04:57:51.297Z,77.70
2024-02-05T05:00:23.283Z,77.68
2024-02-05T05:02:53.262Z,77.85
2024-02-05T05:05:22.368Z,77.89
2024-02-05T05:07:51.308Z,77.90
2024-02-05T05:10:20.268Z,78.14
2024-02-05T05:12:49.170Z,78.29
2024-02-05T05:15:18.689Z,78.40
2024-02-05T05:17:47.767Z,78.84
2024-02-05T05:20:17.592Z,78.77
2024-02-05T05:22:46.673Z,78.93
2024-02-05T05:25:15.698Z,79.01
2024-02-05T05:27:44.686Z,79.11
2024-02-05T05:30:13.892Z,78.90
2024-02-05T05:32:43.414Z,78.97
2024-02-05T05:35:12.880Z,79.14
2024-02-05T05:37:45.093Z,79.01
2024-02-05T05:40:14.112Z,79.02
2024-02-05T05:42:43.456Z,79.13
2024-02-05T05:45:12.353Z,79.30
2024-02-05T05:47:41.432Z,79.33
2024-02-05T05:50:12.490Z,79.25
2024-02-05T05:52:41.804Z,79.13
2024-02-05T05:55:11.866Z,79.13
2024-02-05T05:57:40.983Z,79.14
2024-02-05T06:00:10.882Z,79.06
2024-02-05T06:02:40.028Z,79.09
2024-02-05T06:05:11.407Z,79.22
2024-02-05T06:07:42.005Z,79.26
2024-02-05T06:10:11.603Z,79.38
2024-02-05T06:12:42.785Z,79.41
2024-02-05T06:15:14.512Z,79.37
2024-02-05T06:17:43.732Z,79.46
2024-02-05T06:20:16.185Z,79.31
2024-02-05T06:22:47.012Z,79.39
2024-02-05T06:25:16.057Z,79.55
2024-02-05T06:27:44.952Z,79.55
2024-02-05T06:30:14.418Z,79.39
2024-02-05T06:32:43.633Z,79.38
2024-02-05T06:35:12.841Z,79.45
2024-02-05T06:37:42.120Z,79.41
2024-02-05T06:40:11.594Z,79.64
2024-02-05T06:42:40.724Z,79.62
2024-02-05T06:45:11.713Z,79.48
2024-02-05T06:47:40.972Z,79.49
2024-02-05T06:50:11.880Z,79.53
2024-02-05T06:52:40.868Z,79.39
2024-02-05T06:55:13.444Z,79.65
2024-02-05T06:57:42.737Z,79.45
2024-02-05T07:00:13.902Z,79.53
2024-02-05T07:02:42.903Z,79.56
2024-02-05T07:05:13.676Z,79.38
2024-02-05T07:07:42.716Z,79.54
2024-02-05T07:10:12.137Z,79.44
2024-02-05T07:12:41.439Z,79.55
2024-02-05T07:15:11.090Z,79.38
2024-02-05T07:17:40.849Z,79.53
2024-02-05T07:20:10.542Z,79.53
2024-02-05T07:22:39.714Z,79.30
2024-02-05T07:25:08.872Z,79.36
2024-02-05T07:27:39.333Z,79.32
2024-02-05T07:30:10.363Z,79.43
2024-02-05T07:32:39.583Z,79.24
2024-02-05T07:35:08.959Z,79.16
2024-02-05T07:37:39.247Z,79.11
2024-02-05T07:40:08.964Z,79.18
2024-02-05T07:42:38.028Z,79.00
2024-02-05T07:45:07.152Z,78.90
2024-02-05T07:47:36.119Z,79.00
2024-02-05T07:50:05.549Z,78.79
2024-02-05T07:52:34.603Z,78.91
2024-02-05T07:55:08.155Z,79.03
2024-02-05T07:57:38.364Z,79.08
2024-02-05T08:00:08.394Z,79.07
2024-02-05T08:02:45.826Z,78.97
2024-02-05T08:05:15.156Z,78.95
2024-02-05T08:07:45.499Z,78.96
2024-02-05T08:10:14.472Z,78.99
2024-02-05T08:12:43.486Z,78.92
2024-02-05T08:15:12.689Z,78.86
2024-02-05T08:17:41.654Z,78.73
2024-02-05T08:20:11.150Z,77.56
2024-02-05T08:22:40.196Z,76.56
2024-02-05T08:25:09.644Z,76.41
2024-02-05T08:27:38.540Z,76.89
2024-02-05T08:30:09.197Z,77.10
2024-02-05T08:32:38.253Z,77.42
2024-02-05T08:35:07.551Z,78.08
2024-02-05T08:37:36.562Z,78.69
2024-02-05T08:40:06.246Z,79.46
2024-02-05T08:42:35.183Z,80.01
2024-02-05T08:45:05.032Z,80.50
2024-02-05T08:47:34.482Z,80.77
2024-02-05T08:50:03.995Z,80.90
2024-02-05T08:52:33.260Z,81.15
2024-02-05T08:55:03.449Z,81.33
2024-02-05T08:57:32.456Z,81.37
2024-02-05T09:00:01.439Z,81.16
2024-02-05T09:02:30.644Z,80.95
2024-02-05T09:04:59.856Z,80.73
2024-02-05T09:07:30.153Z,80.43
2024-02-05T09:09:59.676Z,80.18
2024-02-05T09:12:28.627Z,80.23
2024-02-05T09:14:57.450Z,80.25
2024-02-05T09:17:26.350Z,80.14
2024-02-05T09:19:55.536Z,80.15
2024-02-05T09:22:24.801Z,80.12
2024-02-05T09:24:53.731Z,79.96
2024-02-05T09:27:22.623Z,79.81
2024-02-05T09:29:51.543Z,79.73
2024-02-05T09:32:21.111Z,79.90
2024-02-05T09:34:50.218Z,79.66
2024-02-05T09:37:19.666Z,79.56
2024-02-05T09:39:48.611Z,79.47
2024-02-05T09:42:17.516Z,79.55
2024-02-05T09:44:47.752Z,79.60
2024-02-05T09:47:19.863Z,79.57
2024-02-05T09:49:50.077Z,79.52
2024-02-05T09:52:19.315Z,79.46
2024-02-05T09:54:49.394Z,79.53
2024-02-05T09:57:21.741Z,79.41
2024-02-05T09:59:50.882Z,79.44
2024-02-05T10:02:21.459Z,79.36
2024-02-05T10:04:53.185Z,79.14
2024-02-05T10:07:25.735Z,79.32
2024-02-05T10:09:56.803Z,79.24
2024-02-05T10:12:26.578Z,79.25
2024-02-05T10:14:55.457Z,79.30
2024-02-05T10:17:26.655Z,79.52
2024-02-05T10:19:56.190Z,79.29
2024-02-05T10:22:25.484Z,79.56
2024-02-05T10:24:56.381Z,79.68
2024-02-05T10:27:25.523Z,79.36
2024-02-05T10:30:03.521Z,79.66
2024-02-05T10:32:34.627Z,79.60
2024-02-05T10:35:04.564Z,79.86
2024-02-05T10:37:33.683Z,79.77
2024-02-05T10:40:12.311Z,80.33
2024-02-05T10:42:43.177Z,80.62
2024-02-05T10:45:13.316Z,80.64
2024-02-05T10:47:44.356Z,80.77
2024-02-05T10:50:15.777Z,80.80
2024-02-05T10:52:44.992Z,80.62
2024-02-05T10:55:15.080Z,80.65
2024-02-05T10:57:45.368Z,80.54
2024-02-05T11:00:16.344Z,80.48
2024-02-05T11:03:12.559Z,80.60
2024-02-05T11:05:44.809Z,80.62
2024-02-05T11:08:18.069Z,80.64
2024-02-05T11:10:48.174Z,80.52
2024-02-05T11:13:31.655Z,80.62
2024-02-05T11:16:03.549Z,80.43
2024-02-05T11:18:38.418Z,80.39
2024-02-05T11:21:09.863Z,80.51
2024-02-05T11:23:40.270Z,80.44
2024-02-05T11:26:09.347Z,80.27
2024-02-05T11:28:38.531Z,80.23
2024-02-05T11:31:10.805Z,80.30
2024-02-05T11:33:42.231Z,80.17
2024-02-05T11:36:15.700Z,80.22
2024-02-05T11:38:44.624Z,80.12
2024-02-05T11:41:13.829Z,80.21
2024-02-05T11:43:44.151Z,80.16
2024-02-05T11:46:16.210Z,80.01
2024-02-05T11:48:45.610Z,80.14
2024-02-05T11:51:16.825Z,80.05
2024-02-05T11:53:48.508Z,79.99
2024-02-05T11:56:17.493Z,79.94
2024-02-05T11:58:47.279Z,79.87
2024-02-05T12:01:17.873Z,79.89
2024-02-05T12:03:49.774Z,80.15
2024-02-05T12:06:18.761Z,80.15
2024-02-05T12:08:48.007Z,80.28
2024-02-05T12:11:17.522Z,80.23
2024-02-05T12:13:57.338Z,80.17
2024-02-05T12:16:28.467Z,80.50
2024-02-05T12:19:09.129Z,80.37
2024-02-05T12:21:42.276Z,80.55
2024-02-05T12:24:11.634Z,80.56
2024-02-05T12:26:40.786Z,80.58
2024-02-05T12:29:09.742Z,80.51
2024-02-05T12:31:39.406Z,80.63
2024-02-05T12:34:08.723Z,80.74
2024-02-05T12:36:38.900Z,80.91
2024-02-05T12:39:09.126Z,80.93
2024-02-05T12:41:38.693Z,80.91
2024-02-05T12:44:16.305Z,80.81
2024-02-05T12:46:52.309Z,80.89
2024-02-05T12:49:24.073Z,80.87
2024-02-05T12:51:54.850Z,80.93
2024-02-05T12:54:24.160Z,80.74
2024-02-05T12:56:53.196Z,80.82
2024-02-05T12:59:23.031Z,80.80
2024-02-05T13:02:00.624Z,80.79
2024-02-05T13:04:31.866Z,80.71
2024-02-05T13:07:08.467Z,80.73
2024-02-05T13:09:41.283Z,80.70
2024-02-05T13:12:10.535Z,80.76
2024-02-05T13:14:40.493Z,80.58
2024-02-05T13:17:09.490Z,80.59
2024-02-05T13:19:39.002Z,80.46
2024-02-05T13:22:08.458Z,80.55
2024-02-05T13:24:37.977Z,80.69
2024-02-05T13:27:07.028Z,80.61
2024-02-05T13:29:36.171Z,80.80
2024-02-05T13:32:05.391Z,80.79
2024-02-05T13:34:34.909Z,80.67
2024-02-05T13:37:04.101Z,80.78
2024-02-05T13:39:33.535Z,80.84
2024-02-05T13:42:05.480Z,80.68
2024-02-05T13:44:34.475Z,80.38
2024-02-05T13:47:05.445Z,80.51
2024-02-05T13:49:35.426Z,80.49
2024-02-05T13:52:04.676Z,80.25
2024-02-05T13:54:33.633Z,80.13
2024-02-05T13:57:02.532Z,79.88
2024-02-05T13:59:31.565Z,80.01
2024-02-05T14:02:00.542Z,80.04
2024-02-05T14:04:29.963Z,80.07
2024-02-05T14:06:59.779Z,80.27
2024-02-05T14:09:29.069Z,80.34
2024-02-05T14:11:58.103Z,80.40
2024-02-05T14:14:27.235Z,80.42
2024-02-05T14:16:56.083Z,80.33
2024-02-05T14:19:25.296Z,80.35
2024-02-05T14:21:54.732Z,80.40
2024-02-05T14:24:24.526Z,80.30
2024-02-05T14:26:53.736Z,80.48
2024-02-05T14:29:23.008Z,80.24
2024-02-05T14:31:52.758Z,80.10
2024-02-05T14:34:22.769Z,80.16
2024-02-05T14:36:51.847Z,80.04
2024-02-05T14:39:20.887Z,80.05
2024-02-05T14:41:52.397Z,79.85
2024-02-05T14:44:22.360Z,79.62
2024-02-05T14:46:51.512Z,79.75
2024-02-05T14:49:23.288Z,79.62
2024-02-05T14:51:52.606Z,79.47
2024-02-05T14:54:21.618Z,79.40
2024-02-05T14:56:50.604Z,79.46
2024-02-05T14:59:19.469Z,79.46
2024-02-05T15:01:49.339Z,79.28
2024-02-05T15:04:19.297Z,79.38
2024-02-05T15:06:49.108Z,79.43
2024-02-05T15:09:18.156Z,79.73
2024-02-05T15:11:47.198Z,79.59
2024-02-05T15:14:16.755Z,79.72
2024-02-05T15:16:45.722Z,79.74
2024-02-05T15:19:14.908Z,79.59
2024-02-05T15:21:46.387Z,79.62
2024-02-05T15:24:16.005Z,79.59
2024-02-05T15:26:47.835Z,79.52
2024-02-05T15:29:17.042Z,79.49
2024-02-05T15:31:46.601Z,79.53
2024-02-05T15:34:17.300Z,79.33
2024-02-05T15:36:46.478Z,79.20
2024-02-05T15:39:16.263Z,79.23
2024-02-05T15:41:45.291Z,79.27
2024-02-05T15:44:15.593Z,79.21
2024-02-05T15:46:46.115Z,79.17
2024-02-05T15:49:15.229Z,79.10
2024-02-05T15:51:44.185Z,78.93
2024-02-05T15:54:13.240Z,78.83
2024-02-05T15:56:43.946Z,78.94
2024-02-05T15:59:13.238Z,78.82
2024-02-05T16:01:47.288Z,78.76
2024-02-05T16:04:18.199Z,78.90
2024-02-05T16:06:47.726Z,78.99
2024-02-05T16:09:16.823Z,79.02
2024-02-05T16:11:45.879Z,79.02
2024-02-05T16:14:15.522Z,78.97
2024-02-05T16:16:44.772Z,79.04
2024-02-05T16:19:18.618Z,79.05
2024-02-05T16:21:50.855Z,79.04
2024-02-05T16:24:20.354Z,79.08
2024-02-05T16:26:49.413Z,79.09
2024-02-05T16:29:18.945Z,79.10
2024-02-05T16:31:47.885Z,79.20
2024-02-05T16:34:17.193Z,79.48
2024-02-05T16:36:48.554Z,79.38
2024-02-05T16:39:17.504Z,79.46
2024-02-05T16:41:46.510Z,79.60
2024-02-05T16:44:15.569Z,79.62
2024-02-05T16:46:44.630Z,79.53
2024-02-05T16:49:14.530Z,79.59
2024-02-05T16:51:43.724Z,79.72
2024-02-05T16:54:12.854Z,79.50
2024-02-05T16:56:42.022Z,79.64
2024-02-05T16:59:11.268Z,79.62
2024-02-05T17:01:40.509Z,79.50
2024-02-05T17:04:09.781Z,79.50
2024-02-05T17:06:39.052Z,79.35
2024-02-05T17:09:08.050Z,79.20
2024-02-05T17:11:41.019Z,78.88
2024-02-05T17:14:10.070Z,78.74
2024-02-05T17:16:45.324Z,78.65
2024-02-05T17:19:20.489Z,78.25
2024-02-05T17:21:50.406Z,78.19
2024-02-05T17:24:19.459Z,77.88
2024-02-05T17:26:48.930Z,77.70
2024-02-05T17:29:18.922Z,77.32
2024-02-05T17:31:47.886Z,77.10
2024-02-05T17:34:16.823Z,77.05
2024-02-05T17:36:47.587Z,76.83
2024-02-05T17:39:17.264Z,76.72
2024-02-05T17:41:46.419Z,76.36
2024-02-05T17:44:15.549Z,76.19
2024-02-05T17:46:49.306Z,76.03
2024-02-05T17:49:18.429Z,75.72
2024-02-05T17:51:47.741Z,75.58
2024-02-05T17:54:18.287Z,75.39
2024-02-05T17:56:47.271Z,75.18
2024-02-05T17:59:19.667Z,74.71
2024-02-05T18:01:48.959Z,74.68
2024-02-05T18:04:19.217Z,74.19
2024-02-05T18:06:48.319Z,74.08
2024-02-05T18:09:19.139Z,73.70
2024-02-05T18:11:48.273Z,73.49
2024-02-05T18:14:17.359Z,73.20
2024-02-05T18:16:46.336Z,72.56
2024-02-05T18:19:15.628Z,72.46
2024-02-05T18:21:44.645Z,71.93
2024-02-05T18:24:13.642Z,71.39
2024-02-05T18:26:42.599Z,70.82
2024-02-05T18:29:11.640Z,70.61
2024-02-05T18:31:41.320Z,69.97
2024-02-05T18:34:10.443Z,69.74
2024-02-05T18:36:39.391Z,69.36
2024-02-05T18:39:08.308Z,69.15
2024-02-05T18:41:37.397Z,68.84
2024-02-05T18:44:08.832Z,68.75
2024-02-05T18:46:38.434Z,68.67
2024-02-05T18:49:08.895Z,68.59
2024-02-05T18:51:38.060Z,68.55
2024-02-05T18:54:07.006Z,68.30
2024-02-05T18:56:35.965Z,68.41
2024-02-05T18:59:05.021Z,68.41
2024-02-05T19:01:34.590Z,68.27
2024-02-05T19:04:03.953Z,68.31
2024-02-05T19:06:33.190Z,68.17
2024-02-05T19:09:02.546Z,68.48
2024-02-05T19:11:31.684Z,68.40
2024-02-05T19:14:00.939Z,67.98
2024-02-05T19:16:30.022Z,68.14
2024-02-05T19:18:59.890Z,68.04
2024-02-05T19:21:29.204Z,68.08
2024-02-05T19:23:58.398Z,68.27
2024-02-05T19:26:27.480Z,68.28
2024-02-05T19:28:59.185Z,68.20
2024-02-05T19:31:28.741Z,68.06
2024-02-05T19:33:58.189Z,68.06
2024-02-05T19:36:27.306Z,67.85
2024-02-05T19:38:56.572Z,67.85
2024-02-05T19:41:26.072Z,67.89
2024-02-05T19:43:57.030Z,67.89
2024-02-05T19:46:27.616Z,67.93
2024-02-05T19:48:58.595Z,68.01
2024-02-05T19:51:34.102Z,67.68
2024-02-05T19:54:05.726Z,67.67
2024-02-05T19:56:40.441Z,67.66
2024-02-05T19:59:11.279Z,67.56
2024-02-05T20:01:45.986Z,67.27
2024-02-05T20:04:15.618Z,67.37
2024-02-05T20:06:44.891Z,67.31
2024-02-05T20:09:14.118Z,67.07
2024-02-05T20:11:43.415Z,66.87
2024-02-05T20:14:12.906Z,66.80
2024-02-05T20:16:42.180Z,66.63
2024-02-05T20:19:11.252Z,66.41
2024-02-05T20:21:40.384Z,66.27
2024-02-05T20:24:09.809Z,66.40
2024-02-05T20:26:38.777Z,66.15
2024-02-05T20:29:07.852Z,66.18
2024-02-05T20:31:37.032Z,66.24
2024-02-05T20:34:06.409Z,66.09
2024-02-05T20:36:35.817Z,66.08
2024-02-05T20:39:05.462Z,65.93
2024-02-05T20:41:35.893Z,65.70
2024-02-05T20:44:04.862Z,65.75
2024-02-05T20:46:34.078Z,65.75
2024-02-05T20:49:03.333Z,65.48
2024-02-05T20:51:33.300Z,65.61
2024-02-05T20:54:02.467Z,65.64
2024-02-05T20:56:32.616Z,65.48
2024-02-05T20:59:01.800Z,65.45
2024-02-05T21:01:31.941Z,65.39
2024-02-05T21:04:01.652Z,65.34
2024-02-05T21:06:30.784Z,65.17
2024-02-05T21:09:00.016Z,65.30
2024-02-05T21:11:29.125Z,65.31
2024-02-05T21:13:58.140Z,65.32
2024-02-05T21:16:30.457Z,65.14
2024-02-05T21:18:59.831Z,65.11
2024-02-05T21:21:29.394Z,64.92
2024-02-05T21:23:58.421Z,64.84
2024-02-05T21:26:29.633Z,64.75
2024-02-05T21:29:01.645Z,64.71
2024-02-05T21:31:31.045Z,64.57
2024-02-05T21:34:00.715Z,64.41
2024-02-05T21:36:29.687Z,64.53
2024-02-05T21:38:59.090Z,64.39
2024-02-05T21:41:31.069Z,64.33
2024-02-05T21:44:00.475Z,64.42
2024-02-05T21:46:33.362Z,64.31
2024-02-05T21:49:03.158Z,64.39
2024-02-05T21:51:35.489Z,64.40
2024-02-05T21:54:04.679Z,64.13
2024-02-05T21:56:33.551Z,64.13
2024-02-05T21:59:03.273Z,64.25
2024-02-05T22:01:32.345Z,63.95
2024-02-05T22:04:01.758Z,64.01
2024-02-05T22:06:30.965Z,63.95
2024-02-05T22:09:00.849Z,63.87
2024-02-05T22:11:29.786Z,64.02
2024-02-05T22:14:01.404Z,63.73
2024-02-05T22:16:30.623Z,63.78
2024-02-05T22:18:59.753Z,63.76
2024-02-05T22:21:29.028Z,63.88
2024-02-05T22:23:58.130Z,63.71
2024-02-05T22:26:27.137Z,63.57
2024-02-05T22:28:56.177Z,63.43
2024-02-05T22:31:26.484Z,63.45
2024-02-05T22:33:55.793Z,63.41
2024-02-05T22:36:26.250Z,63.09
2024-02-05T22:38:57.448Z,63.30
2024-02-05T22:41:26.645Z,63.31
2024-02-05T22:43:55.635Z,63.01
2024-02-05T22:46:24.793Z,63.01
2024-02-05T22:48:54.053Z,62.75
2024-02-05T22:51:22.984Z,62.85
2024-02-05T22:53:54.693Z,62.93
2024-02-05T22:56:23.759Z,62.82
2024-02-05T22:58:53.543Z,62.89
2024-02-05T23:01:22.963Z,62.60
2024-02-05T23:03:52.176Z,62.52
2024-02-05T23:06:22.150Z,62.53
2024-02-05T23:08:51.347Z,62.37
2024-02-05T23:11:20.481Z,62.33
2024-02-05T23:13:49.442Z,62.16
2024-02-05T23:16:21.169Z,62.33
2024-02-05T23:18:50.395Z,62.17
2024-02-05T23:21:21.403Z,62.08
2024-02-05T23:23:51.126Z,61.94
2024-02-05T23:26:20.312Z,61.88
2024-02-05T23:28:49.270Z,61.98
2024-02-05T23:31:18.223Z,61.84
2024-02-05T23:33:48.501Z,61.42
2024-02-05T23:36:17.470Z,61.53
2024-02-05T23:38:46.349Z,61.45
2024-02-05T23:41:15.382Z,61.38
2024-02-05T23:43:44.355Z,61.34
2024-02-05T23:46:13.332Z,61.27
2024-02-05T23:48:42.294Z,61.17
2024-02-05T23:51:11.206Z,61.31
2024-02-05T23:53:40.097Z,61.17
2024-02-05T23:56:09.466Z,61.22
2024-02-05T23:58:38.677Z,61.02
